首页
METAR-TAF:

METAR-TAF

机场 :

里尔, 法国

纬度: 50-34N, 经度: 003-06E, 海拔: 48米

当前天气观测

该预报发布于26分钟前的00:30 UTC
风速12节,风向东南
温度 5°C
湿度 93%
气压 995 hPa
能见度10公里或以上
多云层高于1700英尺
阴天层高于21000英尺

METAR: LFQQ 140030Z AUTO 13012KT 9999 BKN017 OVC210 05/04 Q0995 BECMG BKN013

时间: 01:56 (00:56 UTC)

预报

该预报发布于1小时和56分钟前的23:00 UTC
预报有效从14日的 00点(UTC)到 15日的 06点(UTC)
风速12节,风向东南
能见度10公里或以上
多云层高于3000英尺
成为
从 14日的 01点(UTC)到 14日的 03点(UTC)
多云层高于1300英尺
短暂存在
从 14日的 03点(UTC)到 14日的 07点(UTC)
能見度: 3000
多云层高于800英尺
阴天层高于1300英尺
成为
从 14日的 09点(UTC)到 14日的 12点(UTC)
多云层高于2000英尺
成为
从 14日的 18点(UTC)到 14日的 21点(UTC)
风速3节,风向多变
短暂存在
从 15日的 00点(UTC)到 15日的 06点(UTC)
能見度: 3000
阴天层高于500英尺

TAF: LFQQ 132300Z 1400/1506 14012KT 9999 BKN030 BECMG 1401/1403 BKN013 TEMPO 1403/1407 3000 RA BKN008 OVC013 BECMG 1409/1412 BKN020 BECMG 1418/1421 VRB03KT TEMPO 1500/1506 3000 RA OVC005

超过4000个机场的气象观测和天气预报(METAR&TAF报告)。

可查询的气象台以黄色和红色小点在地图上表示。

将鼠标移到小点上方,可查看气象台名称。

然后点击查看天气观测和预报。

如需切换地图:点击带黑十字的绿色按钮放大地图;点击带横线的绿色按钮缩小地图;或者点击绿色箭头查看邻近地区的地图。


METAR-TAF: